メインページ
METAR-TAF:

METAR-TAF

空港 :

ナイアガラフォールズ, ニューヨーク, アメリカ合衆国

緯度: 43-06-26N, 経度: 078-56-43W, 海抜: 180m

現時点の気象観測

当レポートは16分前の20:53(UTC)に作成
西/北西の風 9kt
気温 -5°C
湿度 58%
気圧 1032 hPa
視程: 16.1km
高度4000ftの千切れ雲あり
高度5000ftの曇り

METAR: KIAG 202053Z 30009KT 10SM BKN040 OVC050 M05/M12 A3048 RMK AO2 SNB00E17 SLP342 P0000 60000 T10501122 56004

時間: 16:09 (21:09 UTC)

予報

当レポートは3時間39分前の17:30(UTC)に作成
予報は20日の 18時(UTC)から 21日の 18時(UTC)まで有効
北西の風 10kt
視程: 10km
高度4000ftの千切れ雲あり
弱いにわか雪
20日の 1900時(UTC)から
北西の風 8kt
視程: 10km
高度4000ftの千切れ雲あり
21日の 0300時(UTC)から
西/北西の風 7kt
視程: 10km
高度6000ftの雲は散在している
21日の 1000時(UTC)から
西/南西の風 9kt
視程: 10km
高度20000ftの雲は散在している
21日の 1300時(UTC)から
西/南西の風 10kt、最大17ktの突風を伴う
視程: 10km
高度25000ftの雲はほとんどない

TAF: KIAG 201730Z 2018/2118 31010KT P6SM -SHSN BKN040 FM201900 32008KT P6SM BKN040 FM210300 29007KT P6SM SCT060 FM211000 25009KT P6SM SCT200 FM211300 24010G17KT P6SM FEW250

4,000以上の空港の気象観測と天気予報(METAR報とTAF報)

利用可能な観測所は地図上に黄色い丸と赤い丸で示す。

丸の上にカーソルを重ねると観測所名を参照できる。

次にクリックすると気象観測と天気予報を参照できる。

マップの切り替え:黒色「×」印の緑ボタンをクリックして拡大、「-」印の緑ボタンをクリックして縮小、緑色の三角印をクリックして隣りの地図に切り替え


METAR-TAF: